sensor_id;sensor_type;location;lat;lon;timestamp;P1;durP1;ratioP1;P2;durP2;ratioP2
11054;SDS011;5580;50.106;8.702;2022-11-18T00:00:49;16.23;;;8.87;;
11054;SDS011;5580;50.106;8.702;2022-11-18T00:03:16;16.23;;;9.00;;
11054;SDS011;5580;50.106;8.702;2022-11-18T00:05:42;16.33;;;8.80;;
11054;SDS011;5580;50.106;8.702;2022-11-18T00:08:16;16.63;;;8.30;;
11054;SDS011;5580;50.106;8.702;2022-11-18T00:10:42;16.40;;;8.50;;
11054;SDS011;5580;50.106;8.702;2022-11-18T00:13:10;17.90;;;8.53;;
11054;SDS011;5580;50.106;8.702;2022-11-18T00:16:01;17.23;;;8.33;;
11054;SDS011;5580;50.106;8.702;2022-11-18T00:18:29;16.43;;;8.47;;
11054;SDS011;5580;50.106;8.702;2022-11-18T00:20:59;16.80;;;9.10;;
11054;SDS011;5580;50.106;8.702;2022-11-18T00:23:25;14.60;;;8.77;;
11054;SDS011;5580;50.106;8.702;2022-11-18T00:25:51;16.23;;;8.93;;
11054;SDS011;5580;50.106;8.702;2022-11-18T00:28:17;14.50;;;9.13;;
11054;SDS011;5580;50.106;8.702;2022-11-18T00:30:42;16.00;;;9.53;;
11054;SDS011;5580;50.106;8.702;2022-11-18T00:33:08;17.87;;;9.93;;
11054;SDS011;5580;50.106;8.702;2022-11-18T00:35:33;16.47;;;9.40;;
11054;SDS011;5580;50.106;8.702;2022-11-18T00:37:59;15.43;;;8.90;;
11054;SDS011;5580;50.106;8.702;2022-11-18T00:40:25;14.27;;;8.70;;
11054;SDS011;5580;50.106;8.702;2022-11-18T00:42:50;14.70;;;8.70;;
11054;SDS011;5580;50.106;8.702;2022-11-18T00:45:16;16.27;;;9.23;;
11054;SDS011;5580;50.106;8.702;2022-11-18T00:47:43;14.47;;;9.00;;
11054;SDS011;5580;50.106;8.702;2022-11-18T00:50:11;15.90;;;9.23;;
11054;SDS011;5580;50.106;8.702;2022-11-18T00:52:37;13.80;;;8.50;;
11054;SDS011;5580;50.106;8.702;2022-11-18T00:55:03;15.63;;;9.70;;
11054;SDS011;5580;50.106;8.702;2022-11-18T00:57:28;17.83;;;9.43;;
11054;SDS011;5580;50.106;8.702;2022-11-18T00:59:54;15.43;;;9.30;;
11054;SDS011;5580;50.106;8.702;2022-11-18T01:02:20;18.23;;;9.63;;
11054;SDS011;5580;50.106;8.702;2022-11-18T01:04:45;14.47;;;9.30;;
11054;SDS011;5580;50.106;8.702;2022-11-18T01:07:11;16.13;;;9.93;;
11054;SDS011;5580;50.106;8.702;2022-11-18T01:09:37;18.33;;;9.53;;
11054;SDS011;5580;50.106;8.702;2022-11-18T01:12:02;17.93;;;10.00;;
11054;SDS011;5580;50.106;8.702;2022-11-18T01:14:47;14.13;;;9.37;;
11054;SDS011;5580;50.106;8.702;2022-11-18T01:17:12;17.83;;;10.47;;
11054;SDS011;5580;50.106;8.702;2022-11-18T01:19:38;17.03;;;10.17;;
11054;SDS011;5580;50.106;8.702;2022-11-18T01:22:04;17.30;;;10.47;;
11054;SDS011;5580;50.106;8.702;2022-11-18T01:24:30;16.70;;;10.20;;
11054;SDS011;5580;50.106;8.702;2022-11-18T01:26:56;19.80;;;10.57;;
11054;SDS011;5580;50.106;8.702;2022-11-18T01:29:22;16.53;;;10.30;;
11054;SDS011;5580;50.106;8.702;2022-11-18T01:31:47;16.57;;;10.37;;
11054;SDS011;5580;50.106;8.702;2022-11-18T01:34:13;17.93;;;11.60;;
11054;SDS011;5580;50.106;8.702;2022-11-18T01:36:38;19.97;;;10.73;;
11054;SDS011;5580;50.106;8.702;2022-11-18T01:39:04;17.70;;;11.63;;
11054;SDS011;5580;50.106;8.702;2022-11-18T01:41:30;19.87;;;11.70;;
11054;SDS011;5580;50.106;8.702;2022-11-18T01:43:57;18.70;;;11.23;;
11054;SDS011;5580;50.106;8.702;2022-11-18T01:46:29;17.93;;;11.20;;
11054;SDS011;5580;50.106;8.702;2022-11-18T01:49:01;20.43;;;11.77;;
11054;SDS011;5580;50.106;8.702;2022-11-18T01:51:35;23.13;;;12.43;;
11054;SDS011;5580;50.106;8.702;2022-11-18T01:54:14;18.17;;;11.50;;
11054;SDS011;5580;50.106;8.702;2022-11-18T01:56:53;22.40;;;12.93;;
11054;SDS011;5580;50.106;8.702;2022-11-18T01:59:21;21.80;;;12.37;;
11054;SDS011;5580;50.106;8.702;2022-11-18T02:01:50;17.63;;;11.50;;
11054;SDS011;5580;50.106;8.702;2022-11-18T02:04:16;22.70;;;12.47;;
11054;SDS011;5580;50.106;8.702;2022-11-18T02:06:42;22.03;;;13.53;;
11054;SDS011;5580;50.106;8.702;2022-11-18T02:09:09;24.67;;;13.30;;
11054;SDS011;5580;50.106;8.702;2022-11-18T02:11:35;24.83;;;13.73;;
11054;SDS011;5580;50.106;8.702;2022-11-18T02:14:22;23.00;;;14.90;;
11054;SDS011;5580;50.106;8.702;2022-11-18T02:22:15;21.43;;;14.27;;
11054;SDS011;5580;50.106;8.702;2022-11-18T02:25:11;23.63;;;15.03;;
11054;SDS011;5580;50.106;8.702;2022-11-18T02:30:20;23.67;;;15.57;;
11054;SDS011;5580;50.106;8.702;2022-11-18T02:37:56;23.37;;;15.97;;
11054;SDS011;5580;50.106;8.702;2022-11-18T02:42:53;25.10;;;15.50;;
11054;SDS011;5580;50.106;8.702;2022-11-18T02:45:41;25.30;;;15.23;;
11054;SDS011;5580;50.106;8.702;2022-11-18T02:48:11;26.33;;;15.27;;
11054;SDS011;5580;50.106;8.702;2022-11-18T02:50:39;24.47;;;15.23;;
11054;SDS011;5580;50.106;8.702;2022-11-18T02:53:09;24.97;;;14.90;;
11054;SDS011;5580;50.106;8.702;2022-11-18T02:55:38;24.07;;;15.13;;
11054;SDS011;5580;50.106;8.702;2022-11-18T02:58:06;21.17;;;14.30;;
11054;SDS011;5580;50.106;8.702;2022-11-18T03:00:33;22.47;;;14.70;;
11054;SDS011;5580;50.106;8.702;2022-11-18T03:03:00;23.03;;;15.13;;
11054;SDS011;5580;50.106;8.702;2022-11-18T03:05:52;22.53;;;14.73;;
11054;SDS011;5580;50.106;8.702;2022-11-18T03:08:25;24.33;;;15.20;;
11054;SDS011;5580;50.106;8.702;2022-11-18T03:11:15;23.63;;;15.00;;
11054;SDS011;5580;50.106;8.702;2022-11-18T03:16:28;25.57;;;15.33;;
11054;SDS011;5580;50.106;8.702;2022-11-18T03:19:04;22.30;;;14.67;;
11054;SDS011;5580;50.106;8.702;2022-11-18T03:21:43;21.50;;;14.23;;
11054;SDS011;5580;50.106;8.702;2022-11-18T03:24:25;22.13;;;14.77;;
11054;SDS011;5580;50.106;8.702;2022-11-18T03:27:00;22.23;;;14.57;;
11054;SDS011;5580;50.106;8.702;2022-11-18T03:29:36;23.33;;;14.47;;
11054;SDS011;5580;50.106;8.702;2022-11-18T03:32:05;23.00;;;15.23;;
11054;SDS011;5580;50.106;8.702;2022-11-18T03:34:37;24.93;;;14.80;;
11054;SDS011;5580;50.106;8.702;2022-11-18T03:37:07;22.90;;;14.80;;
11054;SDS011;5580;50.106;8.702;2022-11-18T03:39:36;23.47;;;15.40;;
11054;SDS011;5580;50.106;8.702;2022-11-18T03:42:13;24.23;;;14.73;;
11054;SDS011;5580;50.106;8.702;2022-11-18T03:44:49;23.70;;;14.90;;
11054;SDS011;5580;50.106;8.702;2022-11-18T03:47:24;22.37;;;14.50;;
11054;SDS011;5580;50.106;8.702;2022-11-18T03:49:57;23.43;;;15.10;;
11054;SDS011;5580;50.106;8.702;2022-11-18T03:52:34;23.73;;;14.83;;
11054;SDS011;5580;50.106;8.702;2022-11-18T03:55:02;22.37;;;14.30;;
11054;SDS011;5580;50.106;8.702;2022-11-18T03:57:36;21.90;;;13.43;;
11054;SDS011;5580;50.106;8.702;2022-11-18T04:00:16;24.27;;;14.17;;
11054;SDS011;5580;50.106;8.702;2022-11-18T04:02:44;21.80;;;12.97;;
11054;SDS011;5580;50.106;8.702;2022-11-18T04:05:11;20.80;;;13.37;;
11054;SDS011;5580;50.106;8.702;2022-11-18T04:07:41;15.57;;;11.00;;
11054;SDS011;5580;50.106;8.702;2022-11-18T04:10:15;19.10;;;11.63;;
11054;SDS011;5580;50.106;8.702;2022-11-18T04:12:44;14.80;;;9.90;;
11054;SDS011;5580;50.106;8.702;2022-11-18T04:15:15;14.33;;;9.63;;
11054;SDS011;5580;50.106;8.702;2022-11-18T04:17:41;14.07;;;8.80;;
11054;SDS011;5580;50.106;8.702;2022-11-18T04:20:17;14.03;;;8.77;;
11054;SDS011;5580;50.106;8.702;2022-11-18T04:22:44;16.07;;;9.30;;
11054;SDS011;5580;50.106;8.702;2022-11-18T04:25:11;12.97;;;8.80;;
11054;SDS011;5580;50.106;8.702;2022-11-18T04:27:36;13.00;;;8.47;;
11054;SDS011;5580;50.106;8.702;2022-11-18T04:30:03;13.23;;;8.57;;
11054;SDS011;5580;50.106;8.702;2022-11-18T04:32:29;12.60;;;7.80;;
11054;SDS011;5580;50.106;8.702;2022-11-18T04:34:55;13.33;;;8.03;;
11054;SDS011;5580;50.106;8.702;2022-11-18T04:37:21;14.00;;;8.13;;
11054;SDS011;5580;50.106;8.702;2022-11-18T04:39:46;14.83;;;8.17;;
11054;SDS011;5580;50.106;8.702;2022-11-18T04:42:12;14.30;;;8.40;;
11054;SDS011;5580;50.106;8.702;2022-11-18T04:44:37;12.93;;;8.20;;
11054;SDS011;5580;50.106;8.702;2022-11-18T04:47:04;14.70;;;8.43;;
11054;SDS011;5580;50.106;8.702;2022-11-18T04:49:30;11.97;;;7.80;;
11054;SDS011;5580;50.106;8.702;2022-11-18T04:51:56;14.03;;;8.43;;
11054;SDS011;5580;50.106;8.702;2022-11-18T04:54:22;14.60;;;8.13;;
11054;SDS011;5580;50.106;8.702;2022-11-18T04:56:49;13.83;;;8.63;;
11054;SDS011;5580;50.106;8.702;2022-11-18T04:59:16;14.13;;;8.27;;
11054;SDS011;5580;50.106;8.702;2022-11-18T05:01:44;14.43;;;8.70;;
11054;SDS011;5580;50.106;8.702;2022-11-18T05:04:17;14.00;;;8.63;;
11054;SDS011;5580;50.106;8.702;2022-11-18T05:06:45;14.80;;;8.77;;
11054;SDS011;5580;50.106;8.702;2022-11-18T05:09:11;11.43;;;7.80;;
11054;SDS011;5580;50.106;8.702;2022-11-18T05:11:37;14.93;;;8.20;;
11054;SDS011;5580;50.106;8.702;2022-11-18T05:14:23;16.10;;;8.70;;
11054;SDS011;5580;50.106;8.702;2022-11-18T05:16:50;12.80;;;7.90;;
11054;SDS011;5580;50.106;8.702;2022-11-18T05:19:16;13.37;;;7.73;;
11054;SDS011;5580;50.106;8.702;2022-11-18T05:21:41;13.57;;;7.93;;
11054;SDS011;5580;50.106;8.702;2022-11-18T05:24:08;13.17;;;8.10;;
11054;SDS011;5580;50.106;8.702;2022-11-18T05:26:33;11.40;;;7.70;;
11054;SDS011;5580;50.106;8.702;2022-11-18T05:28:59;12.57;;;7.90;;
11054;SDS011;5580;50.106;8.702;2022-11-18T05:31:25;13.17;;;8.23;;
11054;SDS011;5580;50.106;8.702;2022-11-18T05:33:50;14.60;;;7.80;;
11054;SDS011;5580;50.106;8.702;2022-11-18T05:36:17;13.00;;;7.90;;
11054;SDS011;5580;50.106;8.702;2022-11-18T05:38:43;11.77;;;7.63;;
11054;SDS011;5580;50.106;8.702;2022-11-18T05:41:09;14.80;;;8.30;;
11054;SDS011;5580;50.106;8.702;2022-11-18T05:43:55;16.87;;;8.87;;
11054;SDS011;5580;50.106;8.702;2022-11-18T05:46:21;13.67;;;8.60;;
11054;SDS011;5580;50.106;8.702;2022-11-18T05:48:47;14.37;;;8.90;;
11054;SDS011;5580;50.106;8.702;2022-11-18T05:51:12;14.60;;;9.13;;
11054;SDS011;5580;50.106;8.702;2022-11-18T05:53:38;14.20;;;8.17;;
11054;SDS011;5580;50.106;8.702;2022-11-18T05:56:05;14.97;;;8.93;;
11054;SDS011;5580;50.106;8.702;2022-11-18T05:58:39;14.73;;;9.20;;
11054;SDS011;5580;50.106;8.702;2022-11-18T06:01:04;17.53;;;9.40;;
11054;SDS011;5580;50.106;8.702;2022-11-18T06:03:32;14.67;;;8.77;;
11054;SDS011;5580;50.106;8.702;2022-11-18T06:06:02;13.53;;;8.47;;
11054;SDS011;5580;50.106;8.702;2022-11-18T06:08:33;15.73;;;9.17;;
11054;SDS011;5580;50.106;8.702;2022-11-18T06:11:02;15.53;;;8.63;;
11054;SDS011;5580;50.106;8.702;2022-11-18T06:13:29;14.67;;;9.00;;
11054;SDS011;5580;50.106;8.702;2022-11-18T06:16:01;16.50;;;9.00;;
11054;SDS011;5580;50.106;8.702;2022-11-18T06:18:28;15.23;;;8.90;;
11054;SDS011;5580;50.106;8.702;2022-11-18T06:20:58;14.33;;;8.60;;
11054;SDS011;5580;50.106;8.702;2022-11-18T06:23:28;14.73;;;9.03;;
11054;SDS011;5580;50.106;8.702;2022-11-18T06:25:57;19.10;;;9.53;;
11054;SDS011;5580;50.106;8.702;2022-11-18T06:28:23;16.20;;;9.27;;
11054;SDS011;5580;50.106;8.702;2022-11-18T06:30:50;14.33;;;8.83;;
11054;SDS011;5580;50.106;8.702;2022-11-18T06:33:16;15.60;;;9.37;;
11054;SDS011;5580;50.106;8.702;2022-11-18T06:35:42;15.93;;;10.00;;
11054;SDS011;5580;50.106;8.702;2022-11-18T06:38:08;20.13;;;10.10;;
11054;SDS011;5580;50.106;8.702;2022-11-18T06:40:34;18.37;;;9.73;;
11054;SDS011;5580;50.106;8.702;2022-11-18T06:43:07;16.53;;;10.27;;
11054;SDS011;5580;50.106;8.702;2022-11-18T06:45:56;16.73;;;10.33;;
11054;SDS011;5580;50.106;8.702;2022-11-18T06:48:41;17.03;;;10.20;;
11054;SDS011;5580;50.106;8.702;2022-11-18T06:51:07;17.70;;;10.63;;
11054;SDS011;5580;50.106;8.702;2022-11-18T06:53:33;16.50;;;10.27;;
11054;SDS011;5580;50.106;8.702;2022-11-18T06:56:02;18.23;;;11.13;;
11054;SDS011;5580;50.106;8.702;2022-11-18T06:58:29;17.17;;;10.47;;
11054;SDS011;5580;50.106;8.702;2022-11-18T07:00:54;16.00;;;10.30;;
11054;SDS011;5580;50.106;8.702;2022-11-18T07:03:20;19.13;;;11.50;;
11054;SDS011;5580;50.106;8.702;2022-11-18T07:05:45;17.60;;;10.10;;
11054;SDS011;5580;50.106;8.702;2022-11-18T07:08:11;19.03;;;11.17;;
11054;SDS011;5580;50.106;8.702;2022-11-18T07:10:37;18.83;;;11.30;;
11054;SDS011;5580;50.106;8.702;2022-11-18T07:13:02;17.57;;;10.60;;
11054;SDS011;5580;50.106;8.702;2022-11-18T07:15:28;19.00;;;12.13;;
11054;SDS011;5580;50.106;8.702;2022-11-18T07:17:53;20.60;;;11.87;;
11054;SDS011;5580;50.106;8.702;2022-11-18T07:20:19;18.60;;;11.53;;
11054;SDS011;5580;50.106;8.702;2022-11-18T07:22:44;19.20;;;11.60;;
11054;SDS011;5580;50.106;8.702;2022-11-18T07:25:10;20.93;;;12.37;;
11054;SDS011;5580;50.106;8.702;2022-11-18T07:27:35;19.87;;;12.70;;
11054;SDS011;5580;50.106;8.702;2022-11-18T07:30:01;20.53;;;12.23;;
11054;SDS011;5580;50.106;8.702;2022-11-18T07:32:27;19.90;;;12.80;;
11054;SDS011;5580;50.106;8.702;2022-11-18T07:34:52;21.10;;;12.43;;
11054;SDS011;5580;50.106;8.702;2022-11-18T07:37:18;20.47;;;12.90;;
11054;SDS011;5580;50.106;8.702;2022-11-18T07:39:43;20.43;;;13.23;;
11054;SDS011;5580;50.106;8.702;2022-11-18T07:42:09;22.03;;;13.20;;
11054;SDS011;5580;50.106;8.702;2022-11-18T07:44:35;20.20;;;12.30;;
11054;SDS011;5580;50.106;8.702;2022-11-18T07:47:00;16.33;;;10.63;;
11054;SDS011;5580;50.106;8.702;2022-11-18T07:49:26;19.97;;;11.40;;
11054;SDS011;5580;50.106;8.702;2022-11-18T07:51:51;18.27;;;11.07;;
11054;SDS011;5580;50.106;8.702;2022-11-18T07:54:18;17.60;;;10.80;;
11054;SDS011;5580;50.106;8.702;2022-11-18T07:56:44;17.70;;;10.70;;
11054;SDS011;5580;50.106;8.702;2022-11-18T07:59:09;16.70;;;10.30;;
11054;SDS011;5580;50.106;8.702;2022-11-18T08:01:35;16.97;;;10.07;;
11054;SDS011;5580;50.106;8.702;2022-11-18T08:04:07;17.27;;;10.60;;
11054;SDS011;5580;50.106;8.702;2022-11-18T08:06:35;16.57;;;10.23;;
11054;SDS011;5580;50.106;8.702;2022-11-18T08:09:02;17.13;;;9.93;;
11054;SDS011;5580;50.106;8.702;2022-11-18T08:11:32;16.70;;;10.60;;
11054;SDS011;5580;50.106;8.702;2022-11-18T08:13:58;17.40;;;11.37;;
11054;SDS011;5580;50.106;8.702;2022-11-18T08:16:24;17.90;;;11.50;;
11054;SDS011;5580;50.106;8.702;2022-11-18T08:18:50;20.10;;;12.10;;
11054;SDS011;5580;50.106;8.702;2022-11-18T08:21:17;19.90;;;12.23;;
11054;SDS011;5580;50.106;8.702;2022-11-18T08:23:48;20.30;;;12.43;;
11054;SDS011;5580;50.106;8.702;2022-11-18T08:26:15;18.13;;;11.97;;
11054;SDS011;5580;50.106;8.702;2022-11-18T08:28:41;22.47;;;12.87;;
11054;SDS011;5580;50.106;8.702;2022-11-18T08:31:11;22.00;;;12.97;;
11054;SDS011;5580;50.106;8.702;2022-11-18T08:33:39;21.90;;;12.93;;
11054;SDS011;5580;50.106;8.702;2022-11-18T08:36:05;22.20;;;12.93;;
11054;SDS011;5580;50.106;8.702;2022-11-18T08:38:43;19.50;;;13.00;;
11054;SDS011;5580;50.106;8.702;2022-11-18T08:41:12;21.30;;;13.43;;
11054;SDS011;5580;50.106;8.702;2022-11-18T08:43:40;24.73;;;13.63;;
11054;SDS011;5580;50.106;8.702;2022-11-18T08:46:06;23.00;;;13.53;;
11054;SDS011;5580;50.106;8.702;2022-11-18T08:48:31;22.53;;;13.93;;
11054;SDS011;5580;50.106;8.702;2022-11-18T08:50:57;17.27;;;11.73;;
11054;SDS011;5580;50.106;8.702;2022-11-18T08:53:23;20.80;;;13.07;;
11054;SDS011;5580;50.106;8.702;2022-11-18T08:55:55;20.33;;;12.80;;
11054;SDS011;5580;50.106;8.702;2022-11-18T08:58:22;19.30;;;11.57;;
11054;SDS011;5580;50.106;8.702;2022-11-18T09:00:47;18.93;;;11.83;;
11054;SDS011;5580;50.106;8.702;2022-11-18T09:03:13;18.97;;;12.00;;
11054;SDS011;5580;50.106;8.702;2022-11-18T09:05:39;19.40;;;11.90;;
11054;SDS011;5580;50.106;8.702;2022-11-18T09:08:04;20.60;;;12.60;;
11054;SDS011;5580;50.106;8.702;2022-11-18T09:10:30;19.10;;;11.73;;
11054;SDS011;5580;50.106;8.702;2022-11-18T09:12:56;20.73;;;12.50;;
11054;SDS011;5580;50.106;8.702;2022-11-18T09:15:22;20.53;;;13.13;;
11054;SDS011;5580;50.106;8.702;2022-11-18T09:17:48;20.87;;;12.90;;
11054;SDS011;5580;50.106;8.702;2022-11-18T09:20:14;17.70;;;12.27;;
11054;SDS011;5580;50.106;8.702;2022-11-18T09:22:41;17.43;;;11.97;;
11054;SDS011;5580;50.106;8.702;2022-11-18T09:25:06;19.33;;;11.70;;
11054;SDS011;5580;50.106;8.702;2022-11-18T09:27:32;16.83;;;10.23;;
11054;SDS011;5580;50.106;8.702;2022-11-18T09:29:58;18.43;;;10.43;;
11054;SDS011;5580;50.106;8.702;2022-11-18T09:32:23;15.23;;;9.50;;
11054;SDS011;5580;50.106;8.702;2022-11-18T09:34:49;15.63;;;9.27;;
11054;SDS011;5580;50.106;8.702;2022-11-18T09:37:15;15.07;;;8.17;;
11054;SDS011;5580;50.106;8.702;2022-11-18T09:39:40;12.30;;;7.67;;
11054;SDS011;5580;50.106;8.702;2022-11-18T09:47:44;14.40;;;7.73;;
11054;SDS011;5580;50.106;8.702;2022-11-18T09:50:19;13.73;;;6.80;;
11054;SDS011;5580;50.106;8.702;2022-11-18T09:53:01;10.23;;;6.30;;
11054;SDS011;5580;50.106;8.702;2022-11-18T09:55:30;10.37;;;6.33;;
11054;SDS011;5580;50.106;8.702;2022-11-18T09:57:59;11.37;;;6.23;;
11054;SDS011;5580;50.106;8.702;2022-11-18T10:00:26;10.57;;;6.40;;
11054;SDS011;5580;50.106;8.702;2022-11-18T10:03:00;11.20;;;5.80;;
11054;SDS011;5580;50.106;8.702;2022-11-18T10:08:30;8.80;;;5.43;;
11054;SDS011;5580;50.106;8.702;2022-11-18T10:24:43;10.13;;;5.20;;
11054;SDS011;5580;50.106;8.702;2022-11-18T10:27:13;10.77;;;5.10;;
11054;SDS011;5580;50.106;8.702;2022-11-18T10:29:40;8.93;;;4.80;;
11054;SDS011;5580;50.106;8.702;2022-11-18T10:32:11;7.27;;;4.77;;
11054;SDS011;5580;50.106;8.702;2022-11-18T10:34:50;8.87;;;4.70;;
11054;SDS011;5580;50.106;8.702;2022-11-18T10:39:56;7.00;;;4.40;;
11054;SDS011;5580;50.106;8.702;2022-11-18T10:44:54;7.80;;;4.57;;
11054;SDS011;5580;50.106;8.702;2022-11-18T10:47:38;6.53;;;4.47;;
11054;SDS011;5580;50.106;8.702;2022-11-18T10:50:25;6.43;;;4.87;;
11054;SDS011;5580;50.106;8.702;2022-11-18T10:52:55;7.17;;;4.27;;
11054;SDS011;5580;50.106;8.702;2022-11-18T10:55:22;8.23;;;4.17;;
11054;SDS011;5580;50.106;8.702;2022-11-18T10:57:50;5.30;;;4.10;;
11054;SDS011;5580;50.106;8.702;2022-11-18T11:00:32;10.53;;;4.37;;
11054;SDS011;5580;50.106;8.702;2022-11-18T11:03:20;7.07;;;4.40;;
11054;SDS011;5580;50.106;8.702;2022-11-18T11:08:52;6.70;;;4.33;;
11054;SDS011;5580;50.106;8.702;2022-11-18T11:11:21;5.87;;;4.27;;
11054;SDS011;5580;50.106;8.702;2022-11-18T11:13:55;5.53;;;4.43;;
11054;SDS011;5580;50.106;8.702;2022-11-18T11:17:14;5.17;;;4.40;;
11054;SDS011;5580;50.106;8.702;2022-11-18T11:19:34;7.70;;;4.70;;
11054;SDS011;5580;50.106;8.702;2022-11-18T11:22:13;7.43;;;4.70;;
11054;SDS011;5580;50.106;8.702;2022-11-18T11:24:39;9.30;;;4.77;;
11054;SDS011;5580;50.106;8.702;2022-11-18T11:32:54;9.17;;;4.57;;
11054;SDS011;5580;50.106;8.702;2022-11-18T11:35:54;10.47;;;5.30;;
11054;SDS011;5580;50.106;8.702;2022-11-18T11:49:52;6.60;;;4.50;;
11054;SDS011;5580;50.106;8.702;2022-11-18T11:55:01;6.57;;;5.00;;
11054;SDS011;5580;50.106;8.702;2022-11-18T12:00:13;9.90;;;5.00;;
11054;SDS011;5580;50.106;8.702;2022-11-18T12:05:32;7.13;;;4.80;;
11054;SDS011;5580;50.106;8.702;2022-11-18T12:08:01;8.87;;;4.83;;
11054;SDS011;5580;50.106;8.702;2022-11-18T12:10:47;6.97;;;4.93;;
11054;SDS011;5580;50.106;8.702;2022-11-18T12:16:03;10.33;;;4.87;;
11054;SDS011;5580;50.106;8.702;2022-11-18T12:18:44;7.53;;;4.90;;
11054;SDS011;5580;50.106;8.702;2022-11-18T12:22:03;7.80;;;4.90;;
11054;SDS011;5580;50.106;8.702;2022-11-18T12:24:23;9.87;;;5.00;;
11054;SDS011;5580;50.106;8.702;2022-11-18T12:27:02;8.10;;;4.77;;
11054;SDS011;5580;50.106;8.702;2022-11-18T12:43:01;9.30;;;5.00;;
11054;SDS011;5580;50.106;8.702;2022-11-18T12:45:48;8.07;;;4.80;;
11054;SDS011;5580;50.106;8.702;2022-11-18T12:48:38;5.97;;;4.53;;
11054;SDS011;5580;50.106;8.702;2022-11-18T12:53:44;7.00;;;4.27;;
11054;SDS011;5580;50.106;8.702;2022-11-18T13:01:12;9.30;;;4.80;;
11054;SDS011;5580;50.106;8.702;2022-11-18T13:03:42;7.43;;;4.40;;
11054;SDS011;5580;50.106;8.702;2022-11-18T13:08:58;9.50;;;4.70;;
11054;SDS011;5580;50.106;8.702;2022-11-18T13:11:26;7.00;;;4.30;;
11054;SDS011;5580;50.106;8.702;2022-11-18T13:22:52;7.47;;;2.93;;
11054;SDS011;5580;50.106;8.702;2022-11-18T13:25:38;7.13;;;3.63;;
11054;SDS011;5580;50.106;8.702;2022-11-18T13:31:07;7.50;;;3.50;;
11054;SDS011;5580;50.106;8.702;2022-11-18T13:33:48;9.17;;;4.10;;
11054;SDS011;5580;50.106;8.702;2022-11-18T13:36:15;8.20;;;3.60;;
11054;SDS011;5580;50.106;8.702;2022-11-18T13:38:53;7.80;;;3.83;;
11054;SDS011;5580;50.106;8.702;2022-11-18T13:41:23;8.67;;;3.70;;
11054;SDS011;5580;50.106;8.702;2022-11-18T13:44:08;5.93;;;4.07;;
11054;SDS011;5580;50.106;8.702;2022-11-18T13:46:47;8.27;;;3.93;;
11054;SDS011;5580;50.106;8.702;2022-11-18T13:49:30;6.57;;;4.00;;
11054;SDS011;5580;50.106;8.702;2022-11-18T13:52:18;3.57;;;2.73;;
11054;SDS011;5580;50.106;8.702;2022-11-18T13:54:48;6.60;;;3.00;;
11054;SDS011;5580;50.106;8.702;2022-11-18T13:57:16;7.80;;;3.40;;
11054;SDS011;5580;50.106;8.702;2022-11-18T13:59:44;4.87;;;2.77;;
11054;SDS011;5580;50.106;8.702;2022-11-18T14:02:11;4.87;;;3.13;;
11054;SDS011;5580;50.106;8.702;2022-11-18T14:04:45;5.43;;;2.80;;
11054;SDS011;5580;50.106;8.702;2022-11-18T14:07:29;6.80;;;2.80;;
11054;SDS011;5580;50.106;8.702;2022-11-18T14:09:59;7.13;;;3.10;;
11054;SDS011;5580;50.106;8.702;2022-11-18T14:12:32;5.07;;;3.20;;
11054;SDS011;5580;50.106;8.702;2022-11-18T14:17:59;7.37;;;3.70;;
11054;SDS011;5580;50.106;8.702;2022-11-18T14:20:26;7.00;;;3.70;;
11054;SDS011;5580;50.106;8.702;2022-11-18T14:22:58;6.67;;;3.63;;
11054;SDS011;5580;50.106;8.702;2022-11-18T14:25:29;4.63;;;3.50;;
11054;SDS011;5580;50.106;8.702;2022-11-18T14:28:18;6.93;;;3.83;;
11054;SDS011;5580;50.106;8.702;2022-11-18T14:30:57;7.57;;;3.90;;
11054;SDS011;5580;50.106;8.702;2022-11-18T14:33:41;8.03;;;4.20;;
11054;SDS011;5580;50.106;8.702;2022-11-18T14:36:50;7.77;;;4.10;;
11054;SDS011;5580;50.106;8.702;2022-11-18T14:39:24;9.53;;;4.20;;
11054;SDS011;5580;50.106;8.702;2022-11-18T14:41:54;6.37;;;3.70;;
11054;SDS011;5580;50.106;8.702;2022-11-18T14:44:21;6.90;;;4.27;;
11054;SDS011;5580;50.106;8.702;2022-11-18T14:46:52;7.40;;;4.00;;
11054;SDS011;5580;50.106;8.702;2022-11-18T14:49:24;6.60;;;3.77;;
11054;SDS011;5580;50.106;8.702;2022-11-18T14:51:51;8.93;;;4.07;;
11054;SDS011;5580;50.106;8.702;2022-11-18T14:54:19;6.00;;;3.80;;
11054;SDS011;5580;50.106;8.702;2022-11-18T14:56:46;7.67;;;3.97;;
11054;SDS011;5580;50.106;8.702;2022-11-18T14:59:14;7.30;;;4.03;;
11054;SDS011;5580;50.106;8.702;2022-11-18T15:01:41;10.60;;;4.13;;
11054;SDS011;5580;50.106;8.702;2022-11-18T15:04:08;8.93;;;4.00;;
11054;SDS011;5580;50.106;8.702;2022-11-18T15:06:34;9.60;;;4.70;;
11054;SDS011;5580;50.106;8.702;2022-11-18T15:09:01;10.23;;;4.30;;
11054;SDS011;5580;50.106;8.702;2022-11-18T15:11:27;8.77;;;4.10;;
11054;SDS011;5580;50.106;8.702;2022-11-18T15:13:52;12.67;;;4.67;;
11054;SDS011;5580;50.106;8.702;2022-11-18T15:16:22;9.97;;;4.63;;
11054;SDS011;5580;50.106;8.702;2022-11-18T15:18:50;12.57;;;4.70;;
11054;SDS011;5580;50.106;8.702;2022-11-18T15:21:18;7.70;;;4.43;;
11054;SDS011;5580;50.106;8.702;2022-11-18T15:23:44;7.67;;;3.90;;
11054;SDS011;5580;50.106;8.702;2022-11-18T15:28:44;11.33;;;3.87;;
11054;SDS011;5580;50.106;8.702;2022-11-18T15:31:11;8.27;;;3.90;;
11054;SDS011;5580;50.106;8.702;2022-11-18T15:33:36;10.67;;;4.40;;
11054;SDS011;5580;50.106;8.702;2022-11-18T15:36:02;10.67;;;4.57;;
11054;SDS011;5580;50.106;8.702;2022-11-18T15:38:28;9.63;;;5.00;;
11054;SDS011;5580;50.106;8.702;2022-11-18T15:40:53;12.10;;;5.90;;
11054;SDS011;5580;50.106;8.702;2022-11-18T15:43:20;15.77;;;7.20;;
11054;SDS011;5580;50.106;8.702;2022-11-18T15:45:46;14.60;;;7.20;;
11054;SDS011;5580;50.106;8.702;2022-11-18T15:48:11;17.43;;;9.57;;
11054;SDS011;5580;50.106;8.702;2022-11-18T15:50:37;19.47;;;10.83;;
11054;SDS011;5580;50.106;8.702;2022-11-18T15:53:03;18.30;;;10.27;;
11054;SDS011;5580;50.106;8.702;2022-11-18T15:55:28;17.80;;;8.97;;
11054;SDS011;5580;50.106;8.702;2022-11-18T15:57:54;19.03;;;8.30;;
11054;SDS011;5580;50.106;8.702;2022-11-18T16:00:19;13.43;;;7.13;;
11054;SDS011;5580;50.106;8.702;2022-11-18T16:02:45;11.80;;;6.43;;
11054;SDS011;5580;50.106;8.702;2022-11-18T16:05:11;11.53;;;6.00;;
11054;SDS011;5580;50.106;8.702;2022-11-18T16:07:36;13.47;;;6.03;;
11054;SDS011;5580;50.106;8.702;2022-11-18T16:10:02;10.07;;;5.40;;
11054;SDS011;5580;50.106;8.702;2022-11-18T16:12:46;10.67;;;5.30;;
11054;SDS011;5580;50.106;8.702;2022-11-18T16:15:12;11.33;;;5.47;;
11054;SDS011;5580;50.106;8.702;2022-11-18T16:17:56;10.90;;;4.90;;
11054;SDS011;5580;50.106;8.702;2022-11-18T16:20:23;10.10;;;4.70;;
11054;SDS011;5580;50.106;8.702;2022-11-18T16:22:52;9.73;;;5.03;;
11054;SDS011;5580;50.106;8.702;2022-11-18T16:25:19;11.57;;;5.60;;
11054;SDS011;5580;50.106;8.702;2022-11-18T16:27:45;10.67;;;5.50;;
11054;SDS011;5580;50.106;8.702;2022-11-18T16:30:11;11.13;;;5.07;;
11054;SDS011;5580;50.106;8.702;2022-11-18T16:32:57;12.47;;;5.60;;
11054;SDS011;5580;50.106;8.702;2022-11-18T16:35:23;10.37;;;4.90;;
11054;SDS011;5580;50.106;8.702;2022-11-18T16:37:50;10.07;;;5.33;;
11054;SDS011;5580;50.106;8.702;2022-11-18T16:40:15;9.70;;;5.30;;
11054;SDS011;5580;50.106;8.702;2022-11-18T16:42:41;8.70;;;5.30;;
11054;SDS011;5580;50.106;8.702;2022-11-18T16:45:07;8.87;;;4.87;;
11054;SDS011;5580;50.106;8.702;2022-11-18T16:47:33;7.57;;;4.43;;
11054;SDS011;5580;50.106;8.702;2022-11-18T16:49:59;12.17;;;4.97;;
11054;SDS011;5580;50.106;8.702;2022-11-18T16:52:25;11.90;;;5.00;;
11054;SDS011;5580;50.106;8.702;2022-11-18T16:54:50;10.83;;;4.83;;
11054;SDS011;5580;50.106;8.702;2022-11-18T16:57:17;8.53;;;4.30;;
11054;SDS011;5580;50.106;8.702;2022-11-18T16:59:43;11.30;;;4.60;;